YXCA weather

Carnungra-Moriarity Park HLS
Canungra, Queensland, Australia

Public forecast

Using degrees Celsius for public forecast. Weather courtesy of forecast.io.

METAR (pilot weather report)

Closest report is Gold Coast Airport, 20.3 nm (37.5 km) ESE. Retrieved 2019/04/18 13:30 UTC (27 minutes ago):

YBCG 181330Z AUTO 21008KT 9999 -SHRA SCT027 BKN033 BKN043 20/19 Q1023

TAF (pilot weather forecast)

Closest forecast is Gold Coast Airport, 20.3 nm (37.5 km) ESE. Retrieved 2019/04/18 12:00 UTC (2 hours ago):

TAF YBCG 181113Z 1812/1912 16006KT 9999 -SHRA SCT015 SCT025 FM182300 13014KT 9999 -SHRA FEW015 BKN025 INTER 1814/1912 3000 SHRA BKN012